Main page
METAR-TAF:

METAR-TAF

Airports :

Berlevåg Airport

Berlevåg, Norway

latitude: 70-52N, longitude: 029-02E, elevation: 1 m

Current weather observation

The report was made 2 hours and 6 minutes ago, at 20:50 UTC
Wind 29 kt from the West/Northwest
Temperature 2°C
Humidity 75%
Pressure 957 hPa
Visibility 10 km or more
Scattered clouds at a height of 1500 ft
Scattered clouds at a height of 2500 ft
Broken clouds at a height of 5300 ft

METAR: ENBV 172050Z 30029KT 9999 SCT015 SCT025 BKN053 02/M02 Q0957

Time: 23:56 (22:56 UTC)

Forecast

The report was made 11 hours and 56 minutes ago, at 11:00 UTC
Forecast valid from 17 at 12 UTC to 17 at 21 UTC
Wind 8 kt from the North/Northwest
Visibility: 8000 m
Scattered clouds at a height of 500 ft
Broken clouds at a height of 1500 ft
light snow
Temporary
from 17 at 12 UTC to 17 at 21 UTC
Wind 10 kt from the North/Northeast
Visibility: 2000 m
Broken clouds at a height of 500 ft
snow

TAF: ENBV 171100Z 1712/1721 33008KT 8000 -SN SCT005 BKN015 TEMPO 1712/1721 03010KT 2000 SN BKN005

Weather observations and forecasts of more than 4000 airports (METAR and TAF reports).

The available stations are represented by yellow and red dots on the map.

Hover mouse over dot to see the name of the station.

Then click to see weather observations and forecasts.

To change the map : click on the green buttons with a black cross to zoom in, on the green button with a dash to zoom out, or on the green arrows for adjacent maps.


METAR-TAF: